createdAt,value
2017-07-05T08:42:01.774Z,36.22
2017-07-05T08:43:01.410Z,36.32
2017-07-05T08:44:01.763Z,36.32
2017-07-05T08:45:01.429Z,36.22
2017-07-05T08:46:01.762Z,36.82
2017-07-05T08:47:01.448Z,36.92
2017-07-05T08:48:01.458Z,35.75
2017-07-05T08:49:01.460Z,35.16
2017-07-05T08:50:01.470Z,34.77
2017-07-05T08:51:01.801Z,33.8
2017-07-05T08:52:01.807Z,33.41
2017-07-05T08:53:01.497Z,33.8
2017-07-05T08:54:01.828Z,34.1
2017-07-05T08:55:01.838Z,34.08
2017-07-05T08:56:01.847Z,34.18
2017-07-05T08:57:05.942Z,34.06
2017-07-05T08:58:01.868Z,33.77
2017-07-05T08:59:01.558Z,33.97
2017-07-05T09:00:01.567Z,34.34
2017-07-05T09:01:01.898Z,35.21
2017-07-05T09:02:01.918Z,36.36
2017-07-05T09:03:01.921Z,37.62
2017-07-05T09:04:01.930Z,38.55
2017-07-05T09:05:01.989Z,38.73
2017-07-05T09:06:01.950Z,38.92
2017-07-05T09:07:01.959Z,39.9
2017-07-05T09:08:01.980Z,40.16
2017-07-05T09:09:01.659Z,40.73
2017-07-05T09:10:01.669Z,41.3
2017-07-05T09:11:01.680Z,41.67
2017-07-05T09:12:02.010Z,41.86
2017-07-05T09:13:02.023Z,42.55
2017-07-05T09:14:02.030Z,42.63
2017-07-05T09:15:02.037Z,42.63
2017-07-05T09:16:02.048Z,42.72
2017-07-05T09:17:01.737Z,42.72
2017-07-05T09:18:02.069Z,42.74
2017-07-05T09:19:02.076Z,42.65
2017-07-05T09:20:02.082Z,42.25
2017-07-05T09:21:01.778Z,42.74
2017-07-05T09:22:02.099Z,42.74
2017-07-05T09:23:02.105Z,43.33
2017-07-05T09:24:01.794Z,43.13
2017-07-05T09:25:02.132Z,43.3
2017-07-05T15:50:14.431Z,25.11
2017-07-05T15:51:12.458Z,25.11
2017-07-05T15:52:12.641Z,25.4
2017-07-05T15:53:12.469Z,25.31
2017-07-05T15:54:12.163Z,25.11
2017-07-05T15:55:14.019Z,24.71
2017-07-05T15:56:12.164Z,24.71
2017-07-05T15:57:12.174Z,24.71
2017-07-05T15:58:12.512Z,24.71
2017-07-05T15:59:12.517Z,24.32
2017-07-05T16:00:13.612Z,24.52
2017-07-05T16:01:12.524Z,24.62
2017-07-05T16:02:12.530Z,25.01
2017-07-05T16:03:12.545Z,25.31
2017-07-05T16:04:12.229Z,25.6
2017-07-05T16:05:14.705Z,25.5
2017-07-05T16:06:12.556Z,25.31
2017-07-05T16:07:12.247Z,25.7
2017-07-05T16:08:12.584Z,25.71
2017-07-05T16:09:12.579Z,25.9
2017-07-05T16:10:13.178Z,26.2
2017-07-05T16:11:12.594Z,26.29
2017-07-05T16:12:12.606Z,25.9
2017-07-05T16:13:12.285Z,26.78
2017-07-05T16:14:12.626Z,27.67
2017-07-05T16:15:13.836Z,26.29
2017-07-05T16:16:12.629Z,26.49
2017-07-05T16:17:12.632Z,25.9
2017-07-05T16:18:12.644Z,26.49
2017-07-05T16:19:12.328Z,26.68
2017-07-05T16:20:13.839Z,26.38
2017-07-05T16:21:12.673Z,26.38
2017-07-05T16:22:12.669Z,26.18
2017-07-05T16:23:12.374Z,26.86
2017-07-05T16:24:12.371Z,27.44
2017-07-05T16:25:13.678Z,27.73
2017-07-05T16:26:12.385Z,27.64
2017-07-05T16:27:12.398Z,27.64
2017-07-05T16:28:12.717Z,27.93
2017-07-05T16:29:12.727Z,27.93
2017-07-05T16:30:13.982Z,27.73
2017-07-05T16:31:12.422Z,27.83
2017-07-05T16:32:12.744Z,27.73
2017-07-05T16:33:12.752Z,27.25
2017-07-05T16:34:12.452Z,26.66
2017-07-05T16:35:13.358Z,26.37
2017-07-05T16:36:12.466Z,26.66
2017-07-05T16:37:12.795Z,26.86
2017-07-05T16:38:12.796Z,26.86
2017-07-05T16:39:12.487Z,26.66
2017-07-05T16:40:14.081Z,26.76
2017-07-05T16:41:12.811Z,26.95
2017-07-05T16:42:12.819Z,27.15
2017-07-05T16:43:12.834Z,27.44
2017-07-05T16:44:12.846Z,27.34
2017-07-05T16:45:13.475Z,27.34
2017-07-05T16:46:12.854Z,27.05
2017-07-05T16:47:12.854Z,29.3
2017-07-05T16:48:12.559Z,29.1
2017-07-05T16:49:12.883Z,27.83
2017-07-05T16:50:13.008Z,28.13
2017-07-05T16:51:12.957Z,28.52
2017-07-05T16:52:12.595Z,28.42
2017-07-05T16:53:12.902Z,28.32
2017-07-05T16:54:12.932Z,28.22
2017-07-05T16:55:13.789Z,28.32
2017-07-05T16:56:12.957Z,28.61
2017-07-05T16:57:12.935Z,30.65
2017-07-05T16:58:12.937Z,29
2017-07-05T16:59:12.948Z,29.08
2017-07-05T17:00:13.102Z,29.3
2017-07-05T17:01:12.639Z,29.3
2017-07-05T17:02:12.650Z,29.2
2017-07-05T17:03:12.977Z,28.81
2017-07-05T17:04:12.947Z,29
2017-07-05T17:05:12.966Z,28.71
2017-07-05T17:06:13.206Z,29.1
2017-07-05T17:07:13.002Z,29.69
2017-07-05T17:08:13.012Z,29.2
2017-07-05T17:09:12.703Z,29.96
2017-07-05T17:10:13.761Z,30.65
2017-07-05T17:11:12.713Z,30.35
2017-07-05T17:12:12.723Z,30.65
2017-07-05T17:13:12.726Z,30.45
2017-07-05T17:14:13.058Z,30.35
2017-07-05T17:15:13.251Z,30.55
2017-07-05T17:16:13.074Z,29.96
2017-07-05T17:17:12.755Z,29.96
2017-07-05T17:18:13.082Z,30.16
2017-07-05T17:19:13.099Z,29.77
2017-07-05T17:20:13.420Z,29.77
2017-07-05T17:21:16.464Z,32.6
2017-07-05T17:22:13.122Z,30.26
2017-07-05T17:23:12.806Z,29.95
2017-07-05T17:24:13.127Z,29.56
2017-07-05T17:25:13.301Z,29.46
2017-07-05T17:26:13.144Z,29.56
2017-07-05T17:27:13.176Z,29.27
2017-07-05T17:28:13.154Z,29.18
2017-07-05T17:29:13.163Z,29.07
2017-07-05T17:30:13.541Z,29.36
2017-07-05T17:31:13.183Z,29.27
2017-07-05T17:32:13.192Z,29.17
2017-07-05T17:33:13.308Z,28.19
2017-07-05T17:34:13.203Z,28.58
2017-07-05T17:35:13.864Z,28.49
2017-07-05T17:36:12.896Z,28.58
2017-07-05T17:37:12.907Z,28.97
2017-07-05T17:38:13.240Z,29.17
2017-07-05T17:45:00.543Z,30.44
2017-07-05T17:45:46.476Z,30.44
2017-07-05T17:46:46.496Z,30.54
2017-07-05T17:47:47.107Z,30.83
2017-07-05T17:48:46.564Z,31.1
2017-07-05T17:49:47.107Z,31.22
2017-07-05T17:50:48.740Z,31.1
2017-07-05T17:51:46.411Z,31.31
2017-07-05T17:52:46.464Z,31.3
2017-07-05T17:53:47.958Z,31.02
2017-07-05T17:54:46.429Z,31.02
2017-07-05T17:55:46.257Z,31.31
2017-07-05T17:56:46.606Z,31.3
2017-07-05T17:57:46.499Z,32.08
2017-07-05T17:58:46.439Z,31.98
2017-07-05T17:59:46.469Z,32.08
2017-07-05T18:00:47.588Z,32.47
2017-07-05T18:01:46.597Z,32.47
2017-07-05T18:02:46.101Z,33.04
2017-07-05T18:03:46.691Z,32.96
2017-07-05T18:04:46.171Z,32.75
2017-07-05T18:05:45.839Z,33.44
2017-07-05T18:06:46.282Z,33.15
2017-07-05T18:07:45.940Z,33.15
2017-07-05T18:08:46.360Z,33.33
2017-07-05T18:09:45.948Z,33.73
2017-07-05T18:10:45.946Z,33.54
2017-07-05T18:11:46.316Z,33.73
2017-07-05T18:12:45.915Z,34.03
2017-07-05T18:13:45.868Z,34.12
2017-07-05T18:15:46.371Z,34.22
2017-07-05T18:16:46.410Z,34.31
2017-07-05T18:17:46.306Z,34.31
2017-07-05T18:18:45.880Z,34.4
2017-07-05T18:19:45.888Z,33.92
2017-07-05T18:20:45.892Z,34.79
2017-07-05T18:21:45.896Z,34.89
2017-07-05T18:22:46.225Z,34.69
2017-07-05T18:23:46.227Z,34.79
2017-07-05T18:24:45.912Z,35.57
2017-07-05T18:25:45.920Z,35.96
2017-07-05T18:26:45.926Z,35.96
2017-07-05T18:27:46.250Z,36.25
2017-07-05T18:28:46.261Z,36.16
2017-07-05T18:29:46.267Z,36.65
2017-07-05T18:30:45.972Z,36.55
2017-07-05T18:31:45.971Z,36.14
2017-07-05T18:32:46.293Z,36.33
2017-07-05T18:33:46.297Z,36.53
2017-07-05T18:34:46.304Z,36.53
2017-07-05T18:35:46.307Z,36.63
2017-07-05T18:36:46.340Z,36.82
2017-07-05T18:37:46.326Z,37.5
2017-07-05T18:38:46.338Z,37.41
2017-07-05T18:39:46.347Z,37.19
2017-07-05T18:40:46.169Z,38.07
2017-07-05T18:41:46.310Z,38.28
2017-07-05T18:42:46.083Z,38.07
2017-07-05T18:43:46.061Z,38.26
2017-07-05T18:44:46.366Z,38.56
2017-07-05T18:45:46.374Z,38.85
2017-07-05T18:46:46.061Z,39.04
2017-07-05T18:47:46.068Z,38.75
2017-07-05T18:48:46.071Z,38.95
2017-07-05T18:49:46.399Z,39.03
2017-07-05T18:50:46.405Z,39.41
2017-07-05T18:51:46.410Z,39.22
2017-07-05T18:52:46.422Z,39.7
2017-07-05T18:53:46.114Z,40
2017-07-05T18:54:46.167Z,39.9
2017-07-05T18:55:46.119Z,40
2017-07-05T18:56:46.501Z,40.19
2017-07-05T18:57:46.126Z,40.09
2017-07-05T18:58:46.489Z,40.17
2017-07-05T18:59:46.469Z,39.98
2017-07-05T19:00:46.466Z,39.98
2017-07-05T19:01:46.252Z,40.08
2017-07-05T19:02:46.157Z,39.88
2017-07-05T19:03:46.166Z,40.27
2017-07-05T19:04:46.494Z,40.56
2017-07-05T19:05:46.498Z,40.64
2017-07-05T19:06:46.182Z,40.54
2017-07-05T19:07:46.201Z,40.64
2017-07-05T19:08:46.519Z,41.13
2017-07-05T19:09:46.203Z,41.22
2017-07-05T19:10:46.537Z,40.93
2017-07-05T19:11:46.542Z,40.93
2017-07-05T19:12:46.222Z,41.42
2017-07-05T19:13:46.546Z,41.13
2017-07-05T19:14:46.233Z,41.22
2017-07-05T19:15:46.556Z,41.22
2017-07-05T19:16:48.346Z,41.69
2017-07-05T19:17:46.567Z,41.2
2017-07-05T19:18:46.259Z,41.98
2017-07-05T19:19:46.263Z,42.08
2017-07-05T19:20:46.590Z,41.88
2017-07-05T19:21:46.273Z,41.88
2017-07-05T19:22:46.600Z,42.08
2017-07-05T19:23:46.615Z,42.66
2017-07-05T19:24:46.619Z,42.64
2017-07-05T19:25:46.299Z,42.74
2017-07-05T19:26:46.628Z,43.22
2017-07-05T19:27:46.477Z,43.32
2017-07-05T19:28:46.638Z,43.61
2017-07-05T19:29:46.653Z,43.71
2017-07-05T19:30:46.651Z,43.8
2017-07-05T19:31:46.756Z,43.98
2017-07-05T19:32:46.381Z,44.27
2017-07-05T19:33:46.667Z,44.85
2017-07-05T19:34:46.395Z,44.85
2017-07-05T19:35:46.750Z,45.14
2017-07-05T19:36:46.360Z,45.14
2017-07-05T19:37:46.691Z,45.04
2017-07-05T19:38:46.376Z,45.61
2017-07-05T19:39:46.705Z,45.31
2017-07-05T19:40:46.710Z,45.8
2017-07-05T19:41:46.774Z,45.61
2017-07-05T19:42:46.716Z,45.61
2017-07-05T19:43:46.722Z,48.13
2017-07-05T19:44:46.747Z,51.31
2017-07-05T19:45:46.413Z,47.64
2017-07-05T19:46:53.183Z,48.88
2017-07-05T19:47:46.535Z,50.72
2017-07-05T19:48:46.434Z,51.11
2017-07-05T19:49:46.444Z,51.59
2017-07-05T19:50:46.762Z,53.24
2017-07-05T19:51:46.769Z,53.15
2017-07-05T19:52:46.452Z,52.76
2017-07-05T19:53:46.774Z,51.28
2017-07-05T19:54:46.464Z,50.89
2017-07-05T19:55:46.788Z,47.98
2017-07-05T19:56:46.482Z,48.27
2017-07-05T19:57:46.803Z,51.76
2017-07-05T19:58:46.829Z,51.47
2017-07-05T19:59:46.493Z,49.82
2017-07-05T20:00:46.614Z,49.34
2017-07-05T20:01:46.889Z,49.73
2017-07-05T20:02:46.827Z,49.73
2017-07-05T20:03:46.831Z,50.12
2017-07-05T20:04:46.834Z,51.28
2017-07-05T20:05:46.886Z,50.89
2017-07-05T20:06:46.859Z,50.12
2017-07-05T20:07:46.536Z,50.12
2017-07-05T20:08:46.541Z,50.38
2017-07-05T20:09:46.542Z,50.48
2017-07-05T20:10:46.868Z,50.09
2017-07-05T20:11:46.882Z,50.19
2017-07-05T20:12:46.563Z,50.09
2017-07-05T20:13:46.886Z,50.19
2017-07-05T20:14:46.906Z,50.96
2017-07-05T20:15:46.571Z,51.06
2017-07-05T20:16:46.906Z,51.04
2017-07-05T20:17:50.153Z,51.52
2017-07-05T20:18:46.910Z,51.13
2017-07-05T20:19:46.598Z,51.9
2017-07-05T20:20:46.991Z,52
2017-07-05T20:21:46.933Z,52.39
2017-07-05T20:22:46.612Z,52.2
2017-07-05T20:23:46.612Z,53.26
2017-07-05T20:24:46.957Z,53.07
2017-07-05T20:25:46.955Z,53.07
2017-07-05T20:26:46.630Z,52.68
2017-07-05T20:27:46.958Z,52.68
2017-07-05T20:28:46.979Z,52.97
2017-07-05T20:29:46.974Z,53.26
2017-07-05T20:30:46.662Z,53.07
2017-07-05T20:31:47.059Z,53.55
2017-07-05T20:32:46.989Z,53.63
2017-07-05T20:33:47.119Z,54.3
2017-07-05T20:34:46.987Z,53.91
2017-07-05T20:35:46.997Z,54.21
2017-07-05T20:36:47.012Z,54.37
2017-07-05T20:37:47.004Z,54.11
2017-07-05T20:38:47.246Z,54.49
2017-07-05T20:39:47.016Z,54.88
2017-07-05T20:40:46.698Z,55.36
2017-07-05T20:41:47.024Z,55.27
2017-07-05T20:42:46.915Z,54.95
2017-07-05T20:43:47.304Z,55.24
2017-07-05T20:44:47.157Z,55.34
